createdAt,value
2023-05-22T00:00:15.615Z,16.45
2023-05-22T00:02:46.261Z,16.38
2023-05-22T00:05:18.996Z,16.37
2023-05-22T00:07:47.917Z,16.35
2023-05-22T00:10:16.807Z,16.38
2023-05-22T00:12:45.772Z,16.39
2023-05-22T00:15:14.965Z,16.37
2023-05-22T00:17:44.795Z,16.37
2023-05-22T00:20:15.617Z,16.37
2023-05-22T00:22:45.341Z,16.36
2023-05-22T00:25:13.833Z,16.33
2023-05-22T00:27:42.668Z,16.32
2023-05-22T00:30:12.807Z,16.32
2023-05-22T00:32:41.932Z,16.30
2023-05-22T00:35:12.074Z,16.30
2023-05-22T00:37:42.292Z,16.27
2023-05-22T00:40:12.700Z,16.24
2023-05-22T00:42:41.683Z,16.18
2023-05-22T00:45:12.976Z,16.18
2023-05-22T00:47:42.306Z,16.13
2023-05-22T00:50:13.391Z,16.04
2023-05-22T00:52:45.140Z,16.00
2023-05-22T00:55:15.744Z,15.97
2023-05-22T00:57:46.305Z,15.92
2023-05-22T01:00:20.345Z,15.91
2023-05-22T01:02:49.271Z,15.93
2023-05-22T01:05:19.142Z,15.80
2023-05-22T01:07:49.458Z,15.71
2023-05-22T01:10:18.321Z,15.72
2023-05-22T01:13:02.815Z,15.70
2023-05-22T01:15:37.407Z,15.74
2023-05-22T01:18:19.773Z,15.75
2023-05-22T01:20:55.381Z,15.69
2023-05-22T01:23:58.265Z,15.62
2023-05-22T01:26:45.240Z,15.59
2023-05-22T01:29:30.352Z,15.50
2023-05-22T01:32:04.063Z,15.44
2023-05-22T01:34:36.844Z,15.46
2023-05-22T01:37:07.287Z,15.43
2023-05-22T01:39:37.741Z,15.41
2023-05-22T01:42:07.782Z,15.40
2023-05-22T01:44:36.613Z,15.32
2023-05-22T01:47:08.587Z,15.27
2023-05-22T01:49:39.014Z,15.27
2023-05-22T01:52:14.876Z,15.24
2023-05-22T01:54:50.588Z,15.19
2023-05-22T01:57:24.285Z,15.19
2023-05-22T01:59:58.075Z,15.20
2023-05-22T02:02:30.040Z,15.13
2023-05-22T02:05:13.998Z,15.18
2023-05-22T02:07:44.968Z,15.18
2023-05-22T02:10:16.008Z,15.16
2023-05-22T02:12:46.146Z,15.18
2023-05-22T02:15:15.083Z,15.14
2023-05-22T02:17:47.214Z,15.14
2023-05-22T02:20:17.119Z,15.11
2023-05-22T02:22:48.378Z,15.11
2023-05-22T02:25:17.886Z,15.09
2023-05-22T02:27:50.042Z,15.06
2023-05-22T02:30:19.102Z,15.04
2023-05-22T02:32:53.208Z,15.01
2023-05-22T02:35:22.838Z,15.01
2023-05-22T02:37:53.788Z,14.98
2023-05-22T02:40:22.685Z,14.97
2023-05-22T02:42:52.008Z,14.97
2023-05-22T02:45:21.015Z,14.96
2023-05-22T02:47:49.921Z,14.96
2023-05-22T02:50:20.297Z,14.96
2023-05-22T02:52:49.710Z,14.90
2023-05-22T02:55:18.564Z,14.85
2023-05-22T02:57:47.351Z,14.83
2023-05-22T03:00:17.480Z,14.84
2023-05-22T03:02:46.279Z,14.83
2023-05-22T03:05:18.272Z,14.81
2023-05-22T03:07:49.225Z,14.77
2023-05-22T03:10:18.901Z,14.71
2023-05-22T03:12:48.490Z,14.75
2023-05-22T03:15:17.754Z,14.80
2023-05-22T03:17:47.010Z,14.75
2023-05-22T03:20:17.334Z,14.70
2023-05-22T03:22:48.629Z,14.67
2023-05-22T03:25:17.644Z,14.63
2023-05-22T03:27:46.422Z,14.56
2023-05-22T03:30:16.982Z,14.55
2023-05-22T03:32:55.768Z,14.53
2023-05-22T03:35:25.823Z,14.51
2023-05-22T03:37:56.244Z,14.44
2023-05-22T03:40:25.712Z,14.41
2023-05-22T03:42:54.604Z,14.48
2023-05-22T03:45:24.593Z,14.47
2023-05-22T03:47:53.687Z,14.56
2023-05-22T03:50:22.723Z,14.59
2023-05-22T03:52:51.503Z,14.62
2023-05-22T03:55:21.716Z,14.72
2023-05-22T03:57:50.737Z,14.80
2023-05-22T04:00:20.955Z,14.85
2023-05-22T04:02:50.910Z,14.91
2023-05-22T04:05:19.846Z,14.96
2023-05-22T04:07:48.765Z,15.02
2023-05-22T04:10:17.581Z,15.09
2023-05-22T04:12:47.819Z,15.17
2023-05-22T04:15:16.810Z,15.19
2023-05-22T04:17:46.725Z,15.23
2023-05-22T04:20:15.729Z,15.31
2023-05-22T04:22:46.257Z,15.43
2023-05-22T04:25:15.245Z,15.53
2023-05-22T04:27:44.151Z,15.65
2023-05-22T04:30:17.417Z,15.75
2023-05-22T04:32:46.496Z,15.83
2023-05-22T04:35:19.186Z,15.97
2023-05-22T04:37:48.032Z,16.10
2023-05-22T04:40:16.824Z,16.27
2023-05-22T04:42:46.202Z,16.37
2023-05-22T04:45:19.656Z,16.43
2023-05-22T04:47:48.640Z,16.54
2023-05-22T04:50:17.556Z,16.61
2023-05-22T04:52:47.330Z,16.72
2023-05-22T04:55:17.612Z,16.88
2023-05-22T04:57:47.550Z,17.08
2023-05-22T05:00:19.270Z,17.27
2023-05-22T05:02:48.903Z,17.41
2023-05-22T05:05:17.715Z,17.55
2023-05-22T05:07:50.104Z,17.63
2023-05-22T05:10:21.679Z,17.72
2023-05-22T05:12:50.533Z,17.84
2023-05-22T05:15:23.081Z,18.00
2023-05-22T05:17:52.583Z,18.05
2023-05-22T05:20:21.950Z,18.13
2023-05-22T05:22:51.370Z,18.14
2023-05-22T05:25:20.377Z,18.21
2023-05-22T05:27:49.162Z,18.27
2023-05-22T05:30:23.519Z,18.42
2023-05-22T05:33:03.494Z,18.51
2023-05-22T05:35:42.824Z,18.55
2023-05-22T05:38:14.780Z,18.72
2023-05-22T05:40:45.948Z,18.68
2023-05-22T05:43:15.744Z,18.89
2023-05-22T05:45:47.916Z,18.95
2023-05-22T05:48:18.421Z,18.89
2023-05-22T05:50:50.160Z,18.63
2023-05-22T05:53:19.007Z,18.66
2023-05-22T05:55:56.123Z,18.75
2023-05-22T05:58:25.339Z,18.91
2023-05-22T06:01:12.203Z,18.96
2023-05-22T06:03:41.669Z,18.94
2023-05-22T06:06:18.089Z,18.90
2023-05-22T06:08:58.103Z,18.95
2023-05-22T06:11:33.271Z,19.06
2023-05-22T06:14:04.551Z,19.03
2023-05-22T06:16:35.138Z,19.05
2023-05-22T06:19:04.895Z,19.14
2023-05-22T06:21:33.826Z,19.18
2023-05-22T06:24:03.642Z,19.22
2023-05-22T06:26:32.797Z,19.24
2023-05-22T06:29:01.619Z,19.34
2023-05-22T06:31:38.323Z,19.65
2023-05-22T06:34:07.845Z,19.64
2023-05-22T06:36:37.741Z,19.54
2023-05-22T06:39:07.110Z,19.51
2023-05-22T06:41:46.930Z,19.48
2023-05-22T06:44:16.562Z,19.49
2023-05-22T06:46:46.919Z,19.46
2023-05-22T06:49:22.496Z,19.39
2023-05-22T06:51:54.444Z,19.36
2023-05-22T06:54:23.503Z,19.28
2023-05-22T06:56:58.148Z,19.31
2023-05-22T06:59:32.586Z,19.49
2023-05-22T07:02:02.837Z,19.71
2023-05-22T07:04:52.605Z,19.92
2023-05-22T07:07:32.982Z,19.88
2023-05-22T07:10:02.163Z,19.96
2023-05-22T07:12:32.661Z,20.20
2023-05-22T07:15:01.867Z,20.38
2023-05-22T07:17:35.296Z,20.41
2023-05-22T07:20:05.528Z,20.38
2023-05-22T07:22:36.256Z,20.36
2023-05-22T07:25:06.763Z,20.39
2023-05-22T07:27:36.548Z,20.51
2023-05-22T07:30:06.232Z,20.47
2023-05-22T07:32:37.348Z,20.48
2023-05-22T07:35:07.805Z,20.47
2023-05-22T07:37:36.773Z,20.44
2023-05-22T07:40:08.779Z,20.42
2023-05-22T07:42:38.415Z,20.36
2023-05-22T07:45:10.209Z,20.40
2023-05-22T07:47:41.658Z,20.42
2023-05-22T07:50:11.049Z,20.46
2023-05-22T07:52:42.852Z,20.51
2023-05-22T07:55:12.113Z,20.57
2023-05-22T07:57:43.881Z,20.62
2023-05-22T08:00:30.411Z,20.70
2023-05-22T08:03:00.914Z,20.70
2023-05-22T08:05:29.839Z,20.76
2023-05-22T08:07:58.581Z,20.86
2023-05-22T08:10:30.027Z,20.89
2023-05-22T08:13:07.359Z,20.94
2023-05-22T08:15:36.453Z,20.99
2023-05-22T08:18:06.794Z,21.08
2023-05-22T08:20:36.161Z,21.10
2023-05-22T08:23:04.849Z,21.14
2023-05-22T08:25:33.744Z,21.21
2023-05-22T08:28:02.358Z,21.36
2023-05-22T08:30:31.311Z,21.53
2023-05-22T08:33:00.122Z,21.69
2023-05-22T08:35:30.369Z,21.85
2023-05-22T08:38:00.036Z,22.13
2023-05-22T08:40:37.671Z,22.32
2023-05-22T08:43:07.263Z,22.55
2023-05-22T08:45:36.277Z,22.55
2023-05-22T08:48:06.711Z,22.65
2023-05-22T08:50:42.938Z,22.77
2023-05-22T08:53:15.061Z,23.03
2023-05-22T08:55:44.123Z,23.23
2023-05-22T08:58:13.778Z,23.12
2023-05-22T09:00:43.336Z,23.09
2023-05-22T09:03:14.231Z,23.26
2023-05-22T09:05:46.045Z,23.63
2023-05-22T09:08:20.525Z,23.98
2023-05-22T09:10:50.238Z,24.23
2023-05-22T09:13:30.196Z,23.96
2023-05-22T09:16:09.260Z,23.83
2023-05-22T09:18:38.930Z,23.86
2023-05-22T09:23:42.255Z,23.94
2023-05-22T09:26:10.978Z,23.98
2023-05-22T09:28:39.905Z,23.87
